EGLL/LHR METAR and TAF weather

Enter ICAO airport designator
Station Type Date Time Source
EGLL METAR 2018/12/12 23:50 UTC NOAA

EGLL 122350Z AUTO 09008KT 9999 NCD 02/M00 Q1018 NOSIG


Station Type Date Time Source
EGLL Decoded METAR 2018/12/12 23:50 UTC NOAA

London / Heathrow Airport, United Kingdom (EGLL) 51-29N 000-27W 0M
Dec 12, 2018 - 06:50 PM EST / 2018.12.12 2350 UTC
Wind: from the E (090 degrees) at 9 MPH (8 KT):0
Visibility: greater than 7 mile(s):0
Temperature: 35 F (2 C)
Windchill: 28 F (-2 C):1
Dew Point: 32 F (0 C)
Relative Humidity: 86%
Pressure (altimeter): 30.06 in. Hg (1018 hPa)
ob: EGLL 122350Z AUTO 09008KT 9999 NCD 02/M00 Q1018 NOSIG
cycle: 0

Station Type Date Time Source
EGLL TAF 2018/12/12 18:09 UTC NOAA

TAF EGLL 121700Z 1218/1324 12008KT 9999 SCT030 PROB40 1222/1309 8000 PROB30 1320/1324 7000


Example: see airport list